Time;durP1;ratioP1;P1;durP2;ratioP2;P2;SDS_P1;SDS_P2;PMS_P1;PMS_P2;Temp;Humidity;BMP_temperature;BMP_pressure;BME280_temperature;BME280_humidity;BME280_pressure;Samples;Min_cycle;Max_cycle;Signal;HPM_P1;HPM_P2
2023/02/09 00:02:20;;;;;;;172.50;77.07;;;89.90;2176.00;;;;;;5039452;28;20030;-63
2023/02/09 00:04:46;;;;;;;153.57;67.82;;;89.90;2176.00;;;;;;5038194;28;20084;-64
2023/02/09 00:07:11;;;;;;;182.68;78.75;;;90.00;2176.00;;;;;;5038146;28;20495;-65
2023/02/09 00:09:37;;;;;;;191.35;86.95;;;90.10;2176.00;;;;;;5039226;28;20379;-65
2023/02/09 00:14:47;;;;;;;60.10;27.05;;;90.10;2176.00;;;;;;5040370;28;20482;-60
2023/02/09 00:17:13;;;;;;;93.68;39.10;;;90.00;2176.00;;;;;;5039784;28;20044;-58
2023/02/09 00:19:39;;;;;;;61.92;32.35;;;89.90;2176.00;;;;;;5038967;28;20578;-57
2023/02/09 00:22:04;;;;;;;133.27;67.53;;;89.90;2176.00;;;;;;5037816;28;20115;-57
2023/02/09 00:24:30;;;;;;;82.63;43.20;;;89.90;2176.00;;;;;;5039801;28;20021;-58
2023/02/09 00:26:56;;;;;;;94.50;48.97;;;89.80;2176.00;;;;;;5038203;28;20045;-63
2023/02/09 00:29:22;;;;;;;92.03;45.58;;;89.90;2176.00;;;;;;5038505;28;20527;-58
2023/02/09 00:31:49;;;;;;;69.68;36.88;;;89.80;2176.00;;;;;;5039796;28;20383;-56
2023/02/09 00:34:15;;;;;;;74.22;40.22;;;89.80;2176.00;;;;;;5038130;28;20014;-55
2023/02/09 00:36:41;;;;;;;96.82;51.08;;;89.70;2176.00;;;;;;5038678;28;20032;-57
2023/02/09 00:39:07;;;;;;;119.75;60.05;;;89.80;2176.00;;;;;;5039497;28;20463;-65
2023/02/09 00:44:17;;;;;;;137.88;65.68;;;89.90;2176.00;;;;;;5039713;28;20159;-64
2023/02/09 00:46:43;;;;;;;93.05;40.08;;;90.20;2176.00;;;;;;5040172;28;20658;-64
2023/02/09 00:49:08;;;;;;;124.70;62.03;;;90.10;2176.00;;;;;;5041827;28;20055;-57
2023/02/09 00:51:34;;;;;;;82.80;39.78;;;90.10;2176.00;;;;;;5043038;28;20048;-64
2023/02/09 00:54:00;;;;;;;66.35;34.28;;;90.40;2176.00;;;;;;5042983;28;20021;-62
2023/02/09 00:56:26;;;;;;;74.55;38.35;;;90.30;2176.00;;;;;;5041517;28;20068;-64
2023/02/09 00:58:52;;;;;;;55.00;28.08;;;90.30;2176.00;;;;;;5043944;28;20467;-62
2023/02/09 01:01:17;;;;;;;59.70;30.70;;;90.50;2176.00;;;;;;5042205;28;20025;-64
2023/02/09 01:03:43;;;;;;;78.65;41.13;;;115.20;2176.00;;;;;;5041286;28;20087;-65
2023/02/09 01:06:09;;;;;;;49.30;27.85;;;115.20;2176.00;;;;;;5042585;28;20032;-64
2023/02/09 01:08:36;;;;;;;47.97;25.35;;;115.50;2176.00;;;;;;5043101;28;20506;-64
2023/02/09 01:11:12;;;;;;;46.45;25.23;;;115.30;2176.00;;;;;;5052157;28;20025;-57
2023/02/09 01:13:38;;;;;;;59.75;28.83;;;115.40;2176.00;;;;;;5051980;28;20028;-57
2023/02/09 01:16:11;;;;;;;69.63;33.20;;;115.50;2176.00;;;;;;5052404;28;20387;-57
2023/02/09 01:18:38;;;;;;;47.22;22.83;;;115.60;2176.00;;;;;;5049823;28;20033;-56
2023/02/09 01:21:10;;;;;;;76.82;38.00;;;115.40;2176.00;;;;;;5052037;28;20048;-58
2023/02/09 01:23:36;;;;;;;100.78;49.83;;;115.20;2176.00;;;;;;5049629;28;20033;-60
2023/02/09 01:26:04;;;;;;;103.47;53.20;;;90.50;2176.00;;;;;;5052126;28;20037;-57
2023/02/09 01:28:30;;;;;;;46.30;25.80;;;90.40;2176.00;;;;;;5051961;28;20021;-56
2023/02/09 01:30:56;;;;;;;77.13;39.40;;;90.40;2176.00;;;;;;5051814;28;20017;-63
2023/02/09 01:33:22;;;;;;;124.93;59.15;;;90.30;2176.00;;;;;;5052019;28;20032;-57
2023/02/09 01:35:47;;;;;;;110.25;50.67;;;90.40;2176.00;;;;;;5051889;28;20017;-64
2023/02/09 01:38:13;;;;;;;66.90;36.83;;;90.40;2176.00;;;;;;5051996;28;20093;-58
2023/02/09 01:40:44;;;;;;;94.63;47.83;;;90.50;2176.00;;;;;;5051832;28;20063;-65
2023/02/09 01:43:11;;;;;;;93.25;46.08;;;90.40;2176.00;;;;;;5052221;28;20036;-57
2023/02/09 01:45:42;;;;;;;70.03;34.38;;;90.40;2176.00;;;;;;5052426;28;20029;-57
2023/02/09 01:48:08;;;;;;;57.67;32.10;;;90.40;2176.00;;;;;;5051923;28;20541;-66
2023/02/09 01:50:38;;;;;;;68.18;31.70;;;115.50;2176.00;;;;;;5052163;28;20053;-56
2023/02/09 01:53:05;;;;;;;118.43;50.50;;;115.40;2176.00;;;;;;5051814;28;20025;-57
2023/02/09 01:55:35;;;;;;;93.07;39.55;;;115.30;2176.00;;;;;;5051944;28;20060;-57
2023/02/09 01:58:10;;;;;;;62.70;32.03;;;115.40;2176.00;;;;;;5051775;28;20151;-63
2023/02/09 02:00:36;;;;;;;55.70;27.48;;;115.90;2176.00;;;;;;5051826;28;20029;-60
2023/02/09 02:03:08;;;;;;;377.77;141.10;;;116.10;2176.00;;;;;;5051799;28;20032;-65
2023/02/09 02:05:37;;;;;;;109.30;48.72;;;115.90;2176.00;;;;;;5051783;28;20083;-57
2023/02/09 02:08:09;;;;;;;278.20;110.50;;;115.80;2176.00;;;;;;5051724;28;20041;-57
2023/02/09 02:10:35;;;;;;;56.23;27.47;;;140.80;2176.00;;;;;;5051818;28;20035;-57
2023/02/09 02:13:00;;;;;;;76.60;39.08;;;141.00;2176.00;;;;;;5051763;28;20100;-58
2023/02/09 02:15:37;;;;;;;48.30;25.85;;;141.30;2176.00;;;;;;5051425;28;20024;-65
2023/02/09 02:18:21;;;;;;;57.17;25.92;;;141.20;2176.00;;;;;;5051512;28;20036;-57
2023/02/09 02:21:23;;;;;;;61.28;30.08;;;141.20;2176.00;;;;;;5051323;28;20025;-66
2023/02/09 02:24:23;;;;;;;189.37;82.30;;;141.20;2176.00;;;;;;5051594;28;20599;-60
2023/02/09 02:26:49;;;;;;;58.53;33.15;;;140.90;2176.00;;;;;;5033484;28;20388;-67
2023/02/09 02:29:20;;;;;;;98.32;46.58;;;141.00;2176.00;;;;;;5051344;28;20021;-57
2023/02/09 02:32:04;;;;;;;150.68;64.88;;;141.00;2176.00;;;;;;5051188;28;20079;-57
2023/02/09 02:34:58;;;;;;;192.68;76.78;;;140.80;2176.00;;;;;;5051553;28;20033;-61
2023/02/09 02:38:16;;;;;;;77.15;34.78;;;115.90;2176.00;;;;;;5051348;28;20021;-57
2023/02/09 02:40:44;;;;;;;153.45;64.82;;;116.00;2176.00;;;;;;4989732;28;20041;-57
2023/02/09 02:43:31;;;;;;;88.70;45.65;;;116.10;2176.00;;;;;;4989571;28;20034;-57
2023/02/09 02:46:02;;;;;;;180.68;75.18;;;140.80;2176.00;;;;;;4989477;28;20100;-57
2023/02/09 02:49:04;;;;;;;87.80;37.60;;;115.90;2176.00;;;;;;4989445;28;20042;-57
2023/02/09 02:51:34;;;;;;;79.70;37.17;;;116.00;2176.00;;;;;;5013628;28;20055;-58
2023/02/09 02:54:05;;;;;;;161.25;70.75;;;140.80;2176.00;;;;;;5028648;28;20611;-65
2023/02/09 02:56:36;;;;;;;91.15;40.67;;;140.90;2176.00;;;;;;5028885;28;20037;-57
2023/02/09 02:59:06;;;;;;;51.40;25.17;;;140.90;2176.00;;;;;;5028593;28;20116;-62
2023/02/09 03:01:42;;;;;;;57.03;30.05;;;141.00;2176.00;;;;;;5028605;28;20037;-60
2023/02/09 03:04:10;;;;;;;40.05;22.52;;;141.20;2176.00;;;;;;5028741;28;20034;-57
2023/02/09 03:06:37;;;;;;;34.33;20.27;;;141.10;2176.00;;;;;;5028224;28;20092;-57
2023/02/09 03:09:03;;;;;;;39.87;21.80;;;141.40;2176.00;;;;;;5028160;28;20752;-62
2023/02/09 03:11:36;;;;;;;32.75;19.23;;;141.30;2176.00;;;;;;5028495;28;20033;-56
2023/02/09 03:14:21;;;;;;;39.17;20.58;;;141.30;2176.00;;;;;;5043348;28;20025;-56
2023/02/09 03:17:25;;;;;;;55.80;27.50;;;141.50;2176.00;;;;;;5070431;28;20043;-65
2023/02/09 03:20:29;;;;;;;51.03;23.40;;;141.30;2176.00;;;;;;5070863;28;20470;-56
2023/02/09 03:23:01;;;;;;;39.08;18.70;;;141.20;2176.00;;;;;;5067050;28;20036;-57
2023/02/09 03:25:30;;;;;;;42.00;21.33;;;141.30;2176.00;;;;;;5070248;28;20040;-65
2023/02/09 03:28:26;;;;;;;100.13;42.73;;;141.30;2176.00;;;;;;5070286;28;20079;-57
2023/02/09 03:30:52;;;;;;;89.95;43.35;;;141.20;2176.00;;;;;;5068812;28;20120;-57
2023/02/09 03:33:21;;;;;;;73.67;31.17;;;141.10;2176.00;;;;;;5070140;28;20099;-64
2023/02/09 03:35:54;;;;;;;63.40;27.13;;;141.20;2176.00;;;;;;5070033;28;20523;-64
2023/02/09 03:38:20;;;;;;;116.80;49.42;;;141.20;2176.00;;;;;;5070306;28;20020;-57
2023/02/09 03:40:46;;;;;;;239.30;102.43;;;141.20;2176.00;;;;;;5069908;28;20439;-57
2023/02/09 03:43:11;;;;;;;54.43;26.70;;;141.20;2176.00;;;;;;5069938;28;20032;-57
2023/02/09 03:45:37;;;;;;;38.83;22.75;;;141.10;2176.00;;;;;;5069854;28;20036;-57
2023/02/09 03:48:06;;;;;;;39.85;20.58;;;141.10;2176.00;;;;;;5069966;28;20036;-60
2023/02/09 03:50:33;;;;;;;47.42;24.58;;;141.30;2176.00;;;;;;5065423;28;20049;-63
2023/02/09 03:53:00;;;;;;;84.68;36.95;;;141.40;2176.00;;;;;;5049604;28;20036;-56
2023/02/09 03:55:26;;;;;;;117.97;50.22;;;141.40;2176.00;;;;;;5049763;28;20052;-65
2023/02/09 03:57:51;;;;;;;359.90;150.33;;;141.30;2176.00;;;;;;5049808;28;20059;-58
2023/02/09 04:00:17;;;;;;;79.90;34.30;;;141.30;2176.00;;;;;;5049516;28;20029;-65
2023/02/09 04:02:43;;;;;;;41.87;20.40;;;141.40;2176.00;;;;;;5049837;28;20021;-57
2023/02/09 04:05:10;;;;;;;38.30;19.03;;;141.70;2176.00;;;;;;5049638;28;20398;-57
2023/02/09 04:07:36;;;;;;;41.35;22.98;;;166.60;2176.00;;;;;;5049452;28;20090;-60
2023/02/09 04:10:03;;;;;;;47.50;24.23;;;166.80;2176.00;;;;;;5049846;28;20118;-56
2023/02/09 04:12:28;;;;;;;59.93;29.87;;;166.90;2176.00;;;;;;5049365;28;20040;-64
2023/02/09 04:14:54;;;;;;;57.03;26.90;;;167.00;2176.00;;;;;;5049454;28;20025;-57
2023/02/09 04:17:20;;;;;;;69.77;35.77;;;166.80;2176.00;;;;;;5049663;28;20025;-57
2023/02/09 04:19:45;;;;;;;111.53;47.83;;;166.80;2176.00;;;;;;5049328;28;20420;-57
2023/02/09 04:22:11;;;;;;;127.47;53.33;;;166.70;2176.00;;;;;;5049313;28;20029;-57
2023/02/09 04:24:37;;;;;;;89.27;36.67;;;166.60;2176.00;;;;;;5049297;28;20624;-57
2023/02/09 04:27:02;;;;;;;137.83;60.17;;;166.40;2176.00;;;;;;5049656;28;20123;-65
2023/02/09 04:29:28;;;;;;;104.33;45.50;;;141.60;2176.00;;;;;;5049403;28;20051;-59
2023/02/09 04:31:54;;;;;;;71.17;29.43;;;141.60;2176.00;;;;;;5049209;28;20374;-57
2023/02/09 04:34:22;;;;;;;119.13;55.37;;;141.50;2176.00;;;;;;5049139;28;20032;-57
2023/02/09 04:36:48;;;;;;;30.70;14.80;;;141.60;2176.00;;;;;;5049035;28;20037;-66
2023/02/09 04:39:14;;;;;;;99.03;40.43;;;141.70;2176.00;;;;;;5049152;28;20017;-57
2023/02/09 04:41:40;;;;;;;36.87;17.80;;;166.60;2176.00;;;;;;5049351;28;20449;-58
2023/02/09 04:44:05;;;;;;;31.57;15.83;;;166.40;2176.00;;;;;;5049240;28;20021;-56
2023/02/09 04:46:31;;;;;;;41.83;19.57;;;166.50;2176.00;;;;;;5049391;28;20501;-57
2023/02/09 04:48:57;;;;;;;110.17;50.17;;;166.70;2176.00;;;;;;5049020;28;20029;-57
2023/02/09 04:51:22;;;;;;;52.80;24.03;;;166.70;2176.00;;;;;;5048901;28;20562;-57
2023/02/09 04:53:48;;;;;;;45.57;19.83;;;166.80;2176.00;;;;;;5048927;28;20088;-57
2023/02/09 04:56:15;;;;;;;44.20;22.25;;;166.60;2176.00;;;;;;5049272;28;20025;-59
2023/02/09 05:01:25;;;;;;;109.60;55.40;;;166.60;2176.00;;;;;;5049222;28;20494;-57
2023/02/09 05:03:52;;;;;;;127.17;60.27;;;166.40;2176.00;;;;;;5049109;28;20021;-62
2023/02/09 05:06:18;;;;;;;129.93;64.47;;;141.70;2176.00;;;;;;5048791;28;20041;-56
2023/02/09 05:08:44;;;;;;;97.60;43.95;;;141.70;2176.00;;;;;;5048856;28;20025;-57
2023/02/09 05:11:10;;;;;;;37.00;20.55;;;141.60;2176.00;;;;;;5049089;28;20120;-56
2023/02/09 05:13:35;;;;;;;42.10;19.52;;;141.70;2176.00;;;;;;5048651;28;20036;-57
2023/02/09 05:16:10;;;;;;;45.60;20.10;;;166.50;2176.00;;;;;;5049004;28;20079;-58
2023/02/09 05:18:36;;;;;;;38.73;20.60;;;166.40;2176.00;;;;;;5048884;28;20029;-57
2023/02/09 05:21:03;;;;;;;42.53;20.40;;;141.70;2176.00;;;;;;5048942;28;20032;-56
2023/02/09 05:23:29;;;;;;;38.33;19.27;;;141.70;2176.00;;;;;;5048748;28;20025;-57
2023/02/09 05:25:55;;;;;;;39.40;19.80;;;166.40;2176.00;;;;;;5048833;28;20048;-56
2023/02/09 05:28:22;;;;;;;65.27;35.10;;;166.50;2176.00;;;;;;5048583;28;20025;-56
2023/02/09 05:30:52;;;;;;;188.77;97.93;;;166.60;2176.00;;;;;;5048757;28;20108;-61
2023/02/09 05:33:22;;;;;;;81.70;40.77;;;166.40;2176.00;;;;;;5050379;28;20052;-62
2023/02/09 05:35:49;;;;;;;82.60;34.50;;;166.50;2176.00;;;;;;5052226;28;20032;-59
2023/02/09 05:38:15;;;;;;;64.07;28.30;;;166.50;2176.00;;;;;;5052512;28;20025;-57
2023/02/09 05:40:40;;;;;;;58.07;27.17;;;166.40;2176.00;;;;;;5052620;28;20504;-63
2023/02/09 05:43:06;;;;;;;89.10;42.17;;;166.60;2176.00;;;;;;5051803;28;20018;-57
2023/02/09 05:45:32;;;;;;;68.40;31.33;;;166.70;2176.00;;;;;;5052237;28;20082;-63
2023/02/09 05:47:57;;;;;;;80.03;36.90;;;166.60;2176.00;;;;;;5052002;28;20041;-55
2023/02/09 05:50:23;;;;;;;129.80;56.07;;;166.50;2176.00;;;;;;5052040;28;20080;-64
2023/02/09 05:52:49;;;;;;;306.70;139.80;;;166.60;2176.00;;;;;;5051999;28;20040;-58
2023/02/09 05:55:15;;;;;;;204.63;98.53;;;166.50;2176.00;;;;;;5051950;28;20029;-57
2023/02/09 05:57:40;;;;;;;158.20;74.50;;;166.50;2176.00;;;;;;5052115;28;20482;-56
2023/02/09 06:00:07;;;;;;;216.63;114.17;;;166.40;2176.00;;;;;;5051836;28;20109;-56
2023/02/09 06:02:32;;;;;;;115.23;57.23;;;141.70;2176.00;;;;;;5051991;28;20025;-56
2023/02/09 06:04:58;;;;;;;134.87;66.70;;;141.70;2176.00;;;;;;5051843;28;20036;-56
2023/02/09 06:07:24;;;;;;;91.90;42.87;;;166.40;2176.00;;;;;;5051572;28;20505;-57
2023/02/09 06:09:49;;;;;;;103.03;53.50;;;166.50;2176.00;;;;;;5051962;28;20025;-65
2023/02/09 06:12:15;;;;;;;166.70;80.50;;;166.50;2176.00;;;;;;5051662;28;20032;-57
2023/02/09 06:14:40;;;;;;;79.10;35.67;;;141.70;2176.00;;;;;;5051790;28;20024;-57
2023/02/09 06:17:06;;;;;;;59.23;29.87;;;141.70;2176.00;;;;;;5051533;28;20033;-57
2023/02/09 06:19:32;;;;;;;47.57;25.57;;;141.60;2176.00;;;;;;5051709;28;20471;-56
2023/02/09 06:21:58;;;;;;;51.90;31.67;;;141.50;2176.00;;;;;;5051203;28;20033;-56
2023/02/09 06:24:23;;;;;;;48.92;24.27;;;141.70;2176.00;;;;;;5051657;28;20171;-56
2023/02/09 06:26:49;;;;;;;60.93;31.23;;;166.40;2176.00;;;;;;5051326;28;20039;-59
2023/02/09 06:29:15;;;;;;;107.20;52.27;;;166.50;2176.00;;;;;;5051229;28;20459;-66
2023/02/09 06:31:40;;;;;;;73.13;36.97;;;141.70;2176.00;;;;;;5051591;28;20029;-65
2023/02/09 06:34:07;;;;;;;49.57;26.13;;;141.70;2176.00;;;;;;5051130;28;20025;-56
2023/02/09 06:36:33;;;;;;;45.37;19.67;;;141.40;2176.00;;;;;;5051354;28;20116;-56
2023/02/09 06:38:59;;;;;;;36.97;19.67;;;141.40;2176.00;;;;;;5051526;28;20112;-56
2023/02/09 06:41:25;;;;;;;33.23;18.00;;;141.40;2176.00;;;;;;5051456;28;20075;-56
2023/02/09 06:43:51;;;;;;;32.50;17.00;;;141.50;2176.00;;;;;;5050480;28;20029;-56
2023/02/09 06:46:16;;;;;;;38.13;19.43;;;141.60;2176.00;;;;;;5050612;28;20113;-60
2023/02/09 06:48:42;;;;;;;34.10;18.23;;;166.40;2176.00;;;;;;5051135;28;20037;-56
2023/02/09 06:51:10;;;;;;;36.20;18.33;;;141.70;2176.00;;;;;;5051123;28;20060;-55
2023/02/09 06:53:37;;;;;;;40.10;21.23;;;141.40;2176.00;;;;;;5050781;28;20040;-57
2023/02/09 06:56:03;;;;;;;52.17;23.40;;;141.10;2176.00;;;;;;5051167;28;20044;-56
2023/02/09 06:58:29;;;;;;;92.27;46.40;;;141.10;2176.00;;;;;;5050982;28;20031;-57
2023/02/09 07:01:04;;;;;;;147.67;80.53;;;140.80;2176.00;;;;;;5050800;28;20100;-57
2023/02/09 07:03:30;;;;;;;76.17;40.43;;;116.00;2176.00;;;;;;5050853;28;20029;-56
2023/02/09 07:06:01;;;;;;;46.77;22.80;;;116.00;2176.00;;;;;;5050363;28;20025;-56
2023/02/09 07:08:26;;;;;;;60.55;35.13;;;116.00;2176.00;;;;;;5050355;28;20116;-56
2023/02/09 07:10:52;;;;;;;50.60;24.05;;;115.80;2176.00;;;;;;5050940;28;20105;-56
2023/02/09 07:13:18;;;;;;;41.50;24.38;;;115.70;2176.00;;;;;;5050413;28;20537;-64
2023/02/09 07:15:43;;;;;;;65.03;33.70;;;115.50;2176.00;;;;;;5050663;28;20490;-67
2023/02/09 07:18:09;;;;;;;81.87;43.10;;;115.30;2176.00;;;;;;5050451;28;20379;-57
2023/02/09 07:20:35;;;;;;;135.73;74.57;;;115.30;2176.00;;;;;;5050205;28;20029;-58
2023/02/09 07:23:00;;;;;;;202.77;112.75;;;115.20;2176.00;;;;;;5050302;28;20029;-55
2023/02/09 07:25:26;;;;;;;227.90;118.38;;;90.50;2176.00;;;;;;5050218;28;20471;-64
2023/02/09 07:27:52;;;;;;;204.10;117.63;;;90.40;2176.00;;;;;;5050551;28;20036;-56
2023/02/09 07:30:17;;;;;;;196.90;105.75;;;90.30;2176.00;;;;;;5050035;28;20048;-57
2023/02/09 07:32:43;;;;;;;114.55;59.03;;;90.30;2176.00;;;;;;5050212;28;20048;-57
2023/02/09 07:35:09;;;;;;;109.60;60.60;;;90.30;2176.00;;;;;;5050123;28;20087;-63
2023/02/09 07:37:35;;;;;;;151.95;76.50;;;90.20;2176.00;;;;;;5050079;28;20028;-63
2023/02/09 07:40:00;;;;;;;82.35;43.72;;;90.10;2176.00;;;;;;5050341;28;20356;-57
2023/02/09 07:42:26;;;;;;;81.30;42.50;;;90.20;2176.00;;;;;;5049892;28;20108;-57
2023/02/09 07:44:52;;;;;;;104.30;53.97;;;90.00;2176.00;;;;;;5050040;28;20098;-58
2023/02/09 07:47:17;;;;;;;93.40;48.72;;;89.90;2176.00;;;;;;5049816;28;20116;-58
2023/02/09 07:49:43;;;;;;;92.65;44.33;;;89.70;2176.00;;;;;;5049791;28;20042;-56
2023/02/09 07:52:09;;;;;;;83.93;49.60;;;64.80;2201.60;;;;;;5049447;28;20048;-57
2023/02/09 07:54:34;;;;;;;122.35;71.97;;;64.40;2201.60;;;;;;5049655;28;20090;-56
2023/02/09 07:57:00;;;;;;;78.30;42.97;;;13.70;2201.60;;;;;;5049551;28;20082;-60
2023/02/09 07:59:26;;;;;;;110.78;65.65;;;0.60;2201.60;;;;;;5049638;28;20120;-63
2023/02/09 08:01:51;;;;;;;174.57;99.47;;;26.20;2201.60;;;;;;5042230;28;20024;-63
2023/02/09 08:04:17;;;;;;;135.70;77.70;;;26.40;2201.60;;;;;;5030483;28;20033;-59
2023/02/09 08:06:45;;;;;;;185.55;96.32;;;26.10;2201.60;;;;;;5030582;28;20462;-57
2023/02/09 08:09:13;;;;;;;203.93;117.10;;;26.30;2201.60;;;;;;5032690;28;20036;-57
2023/02/09 08:11:42;;;;;;;245.73;146.27;;;51.60;2227.20;;;;;;5030839;28;20091;-59
2023/02/09 08:14:28;;;;;;;212.73;132.90;;;76.80;2227.20;;;;;;5030620;28;20503;-58
2023/02/09 08:17:19;;;;;;;201.68;132.80;;;77.20;2150.40;;;;;;5030352;28;20534;-58
2023/02/09 08:19:50;;;;;;;244.93;166.70;;;102.70;2048.00;;;;;;5030617;28;20116;-58
2023/02/09 08:22:16;;;;;;;212.85;151.45;;;128.40;1945.60;;;;;;5030220;28;20116;-63
2023/02/09 08:24:42;;;;;;;202.30;152.90;;;153.80;1894.40;;;;;;5037320;28;20124;-59
2023/02/09 08:27:08;;;;;;;193.48;138.02;;;154.50;1817.60;;;;;;5039137;28;20065;-59
2023/02/09 08:29:34;;;;;;;224.55;171.05;;;179.40;1792.00;;;;;;5037680;28;20082;-66
2023/02/09 08:31:59;;;;;;;201.30;153.50;;;154.50;1766.40;;;;;;5036811;28;20025;-59
2023/02/09 08:34:25;;;;;;;205.35;154.73;;;154.40;1792.00;;;;;;5035871;28;20062;-58
2023/02/09 08:36:52;;;;;;;197.77;143.25;;;154.20;1792.00;;;;;;5037152;28;20100;-60
2023/02/09 08:39:17;;;;;;;188.35;143.95;;;179.40;1766.40;;;;;;5037529;28;20025;-60
2023/02/09 08:41:43;;;;;;;177.45;132.63;;;204.90;1715.20;;;;;;5035844;28;20029;-59
2023/02/09 08:44:10;;;;;;;144.98;110.65;;;204.90;1689.60;;;;;;5036456;28;20374;-64
2023/02/09 08:46:35;;;;;;;142.88;111.55;;;180.10;1664.00;;;;;;5037187;28;20076;-57
2023/02/09 08:49:01;;;;;;;102.00;75.25;;;205.60;1664.00;;;;;;5035459;28;20065;-60
2023/02/09 08:51:27;;;;;;;91.70;67.07;;;205.30;1638.40;;;;;;5046150;28;20057;-58
2023/02/09 08:53:52;;;;;;;92.35;70.05;;;230.70;1587.20;;;;;;5052427;28;20119;-64
2023/02/09 08:56:22;;;;;;;105.75;75.15;;;231.30;1561.60;;;;;;5062818;28;20360;-59
2023/02/09 08:58:48;;;;;;;87.20;69.57;;;230.70;1561.60;;;;;;5067375;28;20050;-60
2023/02/09 09:01:14;;;;;;;79.53;58.33;;;231.30;1561.60;;;;;;5068084;28;20356;-59
2023/02/09 09:03:41;;;;;;;72.47;56.67;;;230.40;1587.20;;;;;;5067995;28;20051;-63
2023/02/09 09:06:10;;;;;;;71.32;54.83;;;205.70;1612.80;;;;;;5067983;28;20028;-58
2023/02/09 09:08:37;;;;;;;75.90;60.88;;;230.60;1612.80;;;;;;5070071;28;20020;-58
2023/02/09 09:11:05;;;;;;;87.85;66.93;;;205.60;1587.20;;;;;;5071335;28;20017;-58
2023/02/09 09:13:30;;;;;;;91.38;71.15;;;230.60;1561.60;;;;;;5071838;28;20028;-58
2023/02/09 09:15:56;;;;;;;91.03;74.22;;;231.30;1536.00;;;;;;5071265;28;20174;-58
2023/02/09 09:18:23;;;;;;;71.45;58.58;;;256.10;1510.40;;;;;;5071463;28;20039;-59
2023/02/09 09:20:49;;;;;;;83.80;70.72;;;230.60;1561.60;;;;;;5071473;28;20117;-58
2023/02/09 09:23:15;;;;;;;88.15;67.65;;;231.20;1561.60;;;;;;5070727;28;20063;-59
2023/02/09 09:25:41;;;;;;;83.13;67.15;;;256.30;1510.40;;;;;;5071474;28;20383;-58
2023/02/09 09:28:07;;;;;;;94.40;69.70;;;256.50;1510.40;;;;;;5070980;28;20032;-61
2023/02/09 09:30:34;;;;;;;85.25;67.25;;;256.20;1484.80;;;;;;5066685;28;20142;-60
2023/02/09 09:32:59;;;;;;;79.63;61.10;;;230.70;1561.60;;;;;;5060079;28;20028;-61
2023/02/09 09:35:26;;;;;;;83.25;61.22;;;230.90;1561.60;;;;;;5059103;28;20062;-61
2023/02/09 09:37:54;;;;;;;89.47;61.38;;;231.30;1510.40;;;;;;5066815;28;20512;-61
2023/02/09 09:40:32;;;;;;;77.88;60.63;;;230.60;1587.20;;;;;;5068485;28;20036;-62
2023/02/09 09:43:03;;;;;;;85.07;68.18;;;231.30;1536.00;;;;;;5056114;28;20052;-61
2023/02/09 09:45:32;;;;;;;74.65;59.13;;;256.00;1510.40;;;;;;5056240;28;20017;-60
2023/02/09 09:47:58;;;;;;;79.43;58.58;;;205.10;1638.40;;;;;;5055884;28;20044;-59
2023/02/09 09:50:44;;;;;;;93.15;67.35;;;179.40;1740.80;;;;;;5064382;28;20217;-60
2023/02/09 09:53:27;;;;;;;78.60;52.50;;;154.20;1766.40;;;;;;5040321;28;20028;-61
2023/02/09 09:55:58;;;;;;;80.35;52.95;;;128.90;1843.20;;;;;;5047693;28;20418;-61
2023/02/09 09:58:24;;;;;;;58.92;43.08;;;128.60;1843.20;;;;;;5049016;28;20067;-59
2023/02/09 10:00:50;;;;;;;54.22;36.30;;;103.10;1843.20;;;;;;5049098;28;20032;-60
2023/02/09 10:03:18;;;;;;;65.70;38.65;;;102.70;1920.00;;;;;;5048876;28;20033;-60
2023/02/09 10:05:48;;;;;;;61.72;39.42;;;77.70;1971.20;;;;;;5049438;28;20029;-60
2023/02/09 10:08:34;;;;;;;67.68;43.90;;;102.60;1971.20;;;;;;5049070;28;20040;-61
2023/02/09 10:11:07;;;;;;;88.00;52.28;;;77.50;2022.40;;;;;;4987011;28;20063;-60
2023/02/09 10:13:35;;;;;;;;;;;77.40;2048.00;;;;;;4987990;28;20140;-59
2023/02/09 10:16:03;;;;;;;73.15;44.08;;;77.70;2048.00;;;;;;4988618;28;19906;-60
2023/02/09 10:18:32;;;;;;;67.68;43.85;;;102.60;1996.80;;;;;;4990011;28;20033;-60
2023/02/09 10:21:04;;;;;;;68.18;43.35;;;102.70;1996.80;;;;;;4990631;28;20027;-60
2023/02/09 10:23:42;;;;;;;56.25;35.22;;;102.70;1996.80;;;;;;4990640;28;20050;-61
2023/02/09 10:26:07;;;;;;;40.30;25.92;;;102.50;1971.20;;;;;;4990649;28;20066;-60
2023/02/09 10:28:42;;;;;;;32.28;21.30;;;102.40;1996.80;;;;;;4990824;28;20082;-60
2023/02/09 10:31:32;;;;;;;39.45;25.80;;;77.70;1971.20;;;;;;4990688;28;20380;-60
2023/02/09 10:34:05;;;;;;;45.25;26.10;;;77.60;1996.80;;;;;;4990434;28;20105;-60
2023/02/09 10:36:34;;;;;;;36.67;22.48;;;77.50;1996.80;;;;;;4991036;28;20034;-60
2023/02/09 10:39:22;;;;;;;38.55;23.60;;;77.00;2048.00;;;;;;4989517;28;20026;-60
2023/02/09 10:41:52;;;;;;;40.10;23.35;;;77.40;2048.00;;;;;;4988507;28;20038;-60
2023/02/09 10:44:24;;;;;;;51.90;29.55;;;77.70;1996.80;;;;;;4989125;28;20501;-61
2023/02/09 10:47:09;;;;;;;37.65;22.73;;;77.30;2048.00;;;;;;4989423;28;20424;-60
2023/02/09 10:49:38;;;;;;;31.83;20.52;;;76.90;2048.00;;;;;;5050661;28;20032;-61
2023/02/09 10:52:22;;;;;;;35.35;19.52;;;51.70;2073.60;;;;;;5050137;28;20175;-61
2023/02/09 10:54:50;;;;;;;35.55;21.27;;;52.10;2073.60;;;;;;5049192;28;20506;-61
2023/02/09 10:57:39;;;;;;;39.92;20.38;;;77.20;2048.00;;;;;;5047508;28;20079;-60
2023/02/09 11:00:28;;;;;;;37.63;20.60;;;77.10;2048.00;;;;;;4987137;28;20026;-61
2023/02/09 11:03:00;;;;;;;38.22;20.35;;;52.00;2073.60;;;;;;4988628;28;20027;-60
2023/02/09 11:05:29;;;;;;;45.58;25.38;;;77.00;2048.00;;;;;;4988610;28;20042;-60
2023/02/09 11:08:09;;;;;;;44.40;23.52;;;77.10;2048.00;;;;;;4988727;28;20038;-61
2023/02/09 11:10:40;;;;;;;31.65;18.45;;;52.10;2073.60;;;;;;4986651;28;20045;-61
2023/02/09 11:13:17;;;;;;;36.88;18.35;;;51.90;2099.20;;;;;;4988571;28;20512;-61
2023/02/09 11:15:59;;;;;;;42.78;24.75;;;51.90;2073.60;;;;;;4988563;28;20109;-60
2023/02/09 11:18:31;;;;;;;45.90;26.17;;;51.60;2124.80;;;;;;4988370;28;20034;-60
2023/02/09 11:21:25;;;;;;;40.00;22.02;;;76.80;2099.20;;;;;;4988419;28;20022;-61
2023/02/09 11:23:59;;;;;;;56.88;28.02;;;52.10;2073.60;;;;;;4986049;28;20069;-60
2023/02/09 11:26:43;;;;;;;27.80;17.00;;;76.90;2073.60;;;;;;4988237;28;20134;-60
2023/02/09 11:29:18;;;;;;;37.45;21.75;;;51.90;2099.20;;;;;;4986288;28;20391;-60
2023/02/09 11:31:56;;;;;;;51.33;27.00;;;51.70;2099.20;;;;;;4987976;28;20069;-60
2023/02/09 11:34:27;;;;;;;51.30;28.83;;;52.10;2099.20;;;;;;4988937;28;20049;-59
2023/02/09 11:37:01;;;;;;;59.63;35.25;;;51.90;2124.80;;;;;;5014333;28;20382;-60
2023/02/09 11:39:45;;;;;;;42.75;22.83;;;52.00;2124.80;;;;;;5047504;28;20045;-59
2023/02/09 11:45:28;;;;;;;29.63;18.70;;;51.60;2124.80;;;;;;5051329;28;20390;-59
2023/02/09 11:48:29;;;;;;;52.45;30.05;;;52.00;2124.80;;;;;;5049341;28;20036;-59
2023/02/09 11:51:03;;;;;;;33.05;18.48;;;76.90;2124.80;;;;;;5046863;28;20053;-59
2023/02/09 11:53:59;;;;;;;45.75;24.05;;;52.10;2073.60;;;;;;5049292;28;20108;-59
2023/02/09 11:56:26;;;;;;;45.47;25.33;;;52.10;2073.60;;;;;;5030737;28;20029;-61
2023/02/09 11:59:07;;;;;;;55.70;30.55;;;77.00;2099.20;;;;;;5031142;28;20026;-59
2023/02/09 12:02:01;;;;;;;50.90;26.13;;;76.90;2099.20;;;;;;5031033;28;20561;-60
2023/02/09 12:04:42;;;;;;;36.45;18.40;;;52.00;2099.20;;;;;;5030633;28;20028;-60
2023/02/09 12:07:34;;;;;;;46.35;26.85;;;51.90;2099.20;;;;;;5027855;28;20037;-61
2023/02/09 12:10:18;;;;;;;30.23;19.38;;;76.90;2099.20;;;;;;5028857;28;20048;-61
2023/02/09 12:12:53;;;;;;;38.58;20.02;;;52.00;2099.20;;;;;;5028576;28;20034;-61
2023/02/09 12:15:25;;;;;;;32.58;18.27;;;52.00;2073.60;;;;;;5028734;28;20072;-62
2023/02/09 12:18:02;;;;;;;29.38;18.33;;;52.10;2073.60;;;;;;5031845;28;20060;-62
2023/02/09 12:20:37;;;;;;;41.63;30.88;;;77.00;2099.20;;;;;;5030694;28;20029;-63
2023/02/09 12:23:24;;;;;;;28.67;16.13;;;77.20;2073.60;;;;;;5029731;28;20475;-61
2023/02/09 12:25:59;;;;;;;43.17;20.33;;;77.00;2073.60;;;;;;5028425;28;20072;-61